createdAt,value
2023-04-23T00:02:17.283Z,7.50
2023-04-23T00:04:52.942Z,7.50
2023-04-23T00:07:23.930Z,7.50
2023-04-23T00:09:56.458Z,7.50
2023-04-23T00:12:24.269Z,7.50
2023-04-23T00:14:52.238Z,7.50
2023-04-23T00:17:20.134Z,7.50
2023-04-23T00:19:47.812Z,7.40
2023-04-23T00:22:17.312Z,7.50
2023-04-23T00:24:44.564Z,7.50
2023-04-23T00:27:11.924Z,7.50
2023-04-23T00:29:39.410Z,7.40
2023-04-23T00:32:08.388Z,7.50
2023-04-23T00:34:35.868Z,7.50
2023-04-23T00:37:06.834Z,7.50
2023-04-23T00:39:34.252Z,7.50
2023-04-23T00:42:07.254Z,7.40
2023-04-23T00:44:34.672Z,7.50
2023-04-23T00:47:02.677Z,7.50
2023-04-23T00:49:30.933Z,7.50
2023-04-23T00:51:58.106Z,7.50
2023-04-23T00:54:25.370Z,7.50
2023-04-23T00:56:53.759Z,7.50
2023-04-23T00:59:21.559Z,7.60
2023-04-23T01:01:48.884Z,7.60
2023-04-23T01:04:18.055Z,7.60
2023-04-23T01:06:47.469Z,7.50
2023-04-23T01:09:15.848Z,7.60
2023-04-23T01:11:44.204Z,7.60
2023-04-23T01:14:11.771Z,7.50
2023-04-23T01:16:39.279Z,7.50
2023-04-23T01:19:08.281Z,7.50
2023-04-23T01:21:37.090Z,7.50
2023-04-23T01:24:05.730Z,7.50
2023-04-23T01:26:34.001Z,7.50
2023-04-23T01:29:01.956Z,7.40
2023-04-23T01:31:30.945Z,7.40
2023-04-23T01:34:00.526Z,7.40
2023-04-23T01:36:28.280Z,7.40
2023-04-23T01:38:55.749Z,7.30
2023-04-23T01:41:23.019Z,7.30
2023-04-23T01:43:50.773Z,7.20
2023-04-23T01:46:18.405Z,7.20
2023-04-23T01:48:45.629Z,7.20
2023-04-23T01:51:12.901Z,7.20
2023-04-23T01:53:40.020Z,7.20
2023-04-23T01:56:10.081Z,7.10
2023-04-23T01:58:37.501Z,7.10
2023-04-23T02:01:04.793Z,7.10
2023-04-23T02:03:34.188Z,7.20
2023-04-23T02:06:01.820Z,7.20
2023-04-23T02:08:29.207Z,7.20
2023-04-23T02:10:58.052Z,7.20
2023-04-23T02:13:25.345Z,7.30
2023-04-23T02:15:52.629Z,7.30
2023-04-23T02:18:19.956Z,7.30
2023-04-23T02:20:47.449Z,7.30
2023-04-23T02:23:14.658Z,7.30
2023-04-23T02:25:43.523Z,7.30
2023-04-23T02:28:13.561Z,7.30
2023-04-23T02:30:46.834Z,7.30
2023-04-23T02:33:14.501Z,7.30
2023-04-23T02:35:41.940Z,7.20
2023-04-23T02:38:09.313Z,7.20
2023-04-23T02:40:36.880Z,7.20
2023-04-23T02:43:04.149Z,7.20
2023-04-23T02:45:31.335Z,7.10
2023-04-23T02:47:58.648Z,7.10
2023-04-23T02:50:26.119Z,7.10
2023-04-23T02:52:53.498Z,7.10
2023-04-23T02:55:21.135Z,7.10
2023-04-23T02:57:48.579Z,7.10
2023-04-23T03:00:17.161Z,7.10
2023-04-23T03:02:45.565Z,7.10
2023-04-23T03:05:13.894Z,7.10
2023-04-23T03:07:42.141Z,7.10
2023-04-23T03:10:10.026Z,7.10
2023-04-23T03:12:37.602Z,7.10
2023-04-23T03:15:05.918Z,7.10
2023-04-23T03:17:35.999Z,7.10
2023-04-23T03:20:04.296Z,7.10
2023-04-23T03:22:31.759Z,7.10
2023-04-23T03:24:59.230Z,7.10
2023-04-23T03:27:27.010Z,7.20
2023-04-23T03:29:55.471Z,7.20
2023-04-23T03:32:23.298Z,7.20
2023-04-23T03:34:51.014Z,7.20
2023-04-23T03:37:18.659Z,7.20
2023-04-23T03:39:46.217Z,7.20
2023-04-23T03:42:14.128Z,7.20
2023-04-23T03:44:41.738Z,7.20
2023-04-23T03:47:09.481Z,7.20
2023-04-23T03:49:38.458Z,7.20
2023-04-23T03:52:06.272Z,7.10
2023-04-23T03:54:37.357Z,7.10
2023-04-23T03:57:13.985Z,7.10
2023-04-23T03:59:55.919Z,7.10
2023-04-23T04:02:25.075Z,7.10
2023-04-23T04:04:55.231Z,7.10
2023-04-23T04:07:25.020Z,7.10
2023-04-23T04:09:55.322Z,7.10
2023-04-23T04:12:25.913Z,7.10
2023-04-23T04:14:53.246Z,7.10
2023-04-23T04:17:20.662Z,7.10
2023-04-23T04:19:48.684Z,7.10
2023-04-23T04:22:16.396Z,7.10
2023-04-23T04:24:44.098Z,7.10
2023-04-23T04:27:11.794Z,7.10
2023-04-23T04:29:41.845Z,7.10
2023-04-23T04:32:10.517Z,7.10
2023-04-23T04:34:39.429Z,7.10
2023-04-23T04:37:07.179Z,7.10
2023-04-23T04:39:34.599Z,7.10
2023-04-23T04:42:03.084Z,7.20
2023-04-23T04:44:31.006Z,7.20
2023-04-23T04:46:58.579Z,7.20
2023-04-23T04:49:26.062Z,7.20
2023-04-23T04:51:54.441Z,7.20
2023-04-23T04:54:22.103Z,7.20
2023-04-23T04:56:49.516Z,7.20
2023-04-23T04:59:16.911Z,7.30
2023-04-23T05:01:44.894Z,7.30
2023-04-23T05:04:12.450Z,7.30
2023-04-23T05:06:39.897Z,7.30
2023-04-23T05:09:08.529Z,7.30
2023-04-23T05:11:36.255Z,7.40
2023-04-23T05:14:04.781Z,7.40
2023-04-23T05:16:32.106Z,7.50
2023-04-23T05:18:59.710Z,7.50
2023-04-23T05:21:27.910Z,7.50
2023-04-23T05:23:55.871Z,7.50
2023-04-23T05:26:23.462Z,7.50
2023-04-23T05:28:51.077Z,7.50
2023-04-23T05:31:22.051Z,7.50
2023-04-23T05:33:50.762Z,7.60
2023-04-23T05:36:18.963Z,7.50
2023-04-23T05:38:46.935Z,7.60
2023-04-23T05:41:14.922Z,7.60
2023-04-23T05:43:42.456Z,7.60
2023-04-23T05:46:09.817Z,7.60
2023-04-23T05:48:37.280Z,7.60
2023-04-23T05:51:04.920Z,7.60
2023-04-23T05:53:32.422Z,7.60
2023-04-23T05:56:00.023Z,7.60
2023-04-23T05:58:27.875Z,7.60
2023-04-23T06:00:55.472Z,7.60
2023-04-23T06:03:22.921Z,7.60
2023-04-23T06:05:50.483Z,7.50
2023-04-23T06:08:18.705Z,7.50
2023-04-23T06:10:46.493Z,7.50
2023-04-23T06:13:13.807Z,7.50
2023-04-23T06:18:37.943Z,7.40
2023-04-23T06:21:06.272Z,7.40
2023-04-23T06:23:34.480Z,7.30
2023-04-23T06:26:02.224Z,7.30
2023-04-23T06:28:29.809Z,7.30
2023-04-23T06:31:19.893Z,7.30
2023-04-23T06:33:47.718Z,7.40
2023-04-23T06:36:14.911Z,7.40
2023-04-23T06:38:42.493Z,7.40
2023-04-23T06:41:09.966Z,7.40
2023-04-23T06:43:37.437Z,7.40
2023-04-23T06:46:25.100Z,7.40
2023-04-23T06:48:52.468Z,7.50
2023-04-23T06:51:19.880Z,7.50
2023-04-23T06:53:47.751Z,7.50
2023-04-23T06:56:15.142Z,7.50
2023-04-23T06:58:42.704Z,7.50
2023-04-23T07:01:19.422Z,7.50
2023-04-23T07:03:49.442Z,7.60
2023-04-23T07:06:19.577Z,7.60
2023-04-23T07:08:47.085Z,7.60
2023-04-23T07:11:14.329Z,7.70
2023-04-23T07:13:42.527Z,7.70
2023-04-23T07:16:09.881Z,7.70
2023-04-23T07:18:37.339Z,7.70
2023-04-23T07:21:04.806Z,7.70
2023-04-23T07:23:32.090Z,7.70
2023-04-23T07:25:59.564Z,7.70
2023-04-23T07:28:26.986Z,7.70
2023-04-23T07:30:54.494Z,7.70
2023-04-23T07:33:21.919Z,7.70
2023-04-23T07:35:49.536Z,7.70
2023-04-23T07:38:16.860Z,7.80
2023-04-23T07:40:44.337Z,7.80
2023-04-23T07:43:15.332Z,7.80
2023-04-23T07:45:43.189Z,7.70
2023-04-23T07:48:10.932Z,7.70
2023-04-23T07:50:54.910Z,7.80
2023-04-23T07:53:23.278Z,7.80
2023-04-23T07:55:50.857Z,7.80
2023-04-23T07:58:18.243Z,7.80
2023-04-23T08:00:46.546Z,7.80
2023-04-23T08:03:13.977Z,7.80
2023-04-23T08:05:41.996Z,7.90
2023-04-23T08:08:11.408Z,7.90
2023-04-23T08:10:38.786Z,7.90
2023-04-23T08:13:05.971Z,7.90
2023-04-23T08:15:33.293Z,8.00
2023-04-23T08:18:01.009Z,7.90
2023-04-23T08:20:28.430Z,7.90
2023-04-23T08:22:56.823Z,7.90
2023-04-23T08:25:24.322Z,8.00
2023-04-23T08:27:51.496Z,8.00
2023-04-23T08:30:18.774Z,8.00
2023-04-23T08:32:51.379Z,8.00
2023-04-23T08:35:18.726Z,8.00
2023-04-23T08:37:46.456Z,8.00
2023-04-23T08:40:13.814Z,8.00
2023-04-23T08:43:02.196Z,8.00
2023-04-23T08:45:30.851Z,8.00
2023-04-23T08:48:02.118Z,8.00
2023-04-23T08:50:31.300Z,8.10
2023-04-23T08:52:59.134Z,8.00
2023-04-23T08:55:26.729Z,8.00
2023-04-23T08:57:58.391Z,8.00
2023-04-23T09:00:26.338Z,8.00
2023-04-23T09:02:54.208Z,8.00
2023-04-23T09:05:21.999Z,8.10
2023-04-23T09:07:49.449Z,8.00
2023-04-23T09:10:18.673Z,8.00
2023-04-23T09:12:46.934Z,8.00
2023-04-23T09:15:14.570Z,8.00
2023-04-23T09:17:46.453Z,7.90
2023-04-23T09:20:15.332Z,7.80
2023-04-23T09:22:47.303Z,7.70
2023-04-23T09:25:24.720Z,7.70
2023-04-23T09:27:53.355Z,7.60
2023-04-23T09:30:21.153Z,7.60
2023-04-23T09:32:49.810Z,7.60
2023-04-23T09:35:20.295Z,7.50
2023-04-23T09:42:16.415Z,7.40
2023-04-23T09:44:43.671Z,7.30
2023-04-23T09:47:12.403Z,7.30
2023-04-23T09:49:50.211Z,7.30
2023-04-23T09:52:18.612Z,7.30
2023-04-23T09:54:46.980Z,7.20
2023-04-23T09:57:14.594Z,7.20
2023-04-23T09:59:48.753Z,7.20
2023-04-23T10:02:20.499Z,7.10
2023-04-23T10:04:54.569Z,7.10
2023-04-23T10:07:25.809Z,7.20
2023-04-23T10:09:52.961Z,7.10
2023-04-23T10:12:41.161Z,7.10
2023-04-23T10:15:10.855Z,7.20
2023-04-23T10:17:39.390Z,7.20
2023-04-23T10:20:08.543Z,7.20
2023-04-23T10:22:38.044Z,7.20
2023-04-23T10:25:09.409Z,7.20
2023-04-23T10:27:52.245Z,7.30
2023-04-23T10:30:22.387Z,7.40
2023-04-23T10:32:51.086Z,7.50
2023-04-23T10:35:18.791Z,7.50
2023-04-23T10:37:48.428Z,7.50
2023-04-23T10:40:22.171Z,7.50
2023-04-23T10:42:50.388Z,7.40
2023-04-23T10:47:49.579Z,7.40
2023-04-23T10:50:29.155Z,7.40
2023-04-23T10:52:58.337Z,7.50
2023-04-23T10:55:31.114Z,7.60
2023-04-23T10:58:03.302Z,7.70
2023-04-23T11:00:43.453Z,7.80
2023-04-23T11:03:33.190Z,8.00
2023-04-23T11:06:05.132Z,8.20
2023-04-23T11:08:32.877Z,8.30
2023-04-23T11:11:01.816Z,8.40
2023-04-23T11:13:30.610Z,8.30
2023-04-23T11:16:23.406Z,8.20
2023-04-23T11:19:00.133Z,8.20
2023-04-23T11:22:02.403Z,8.10
2023-04-23T11:24:42.768Z,8.00
2023-04-23T11:27:13.239Z,8.00
2023-04-23T11:29:43.281Z,7.90
2023-04-23T11:32:13.146Z,7.90
2023-04-23T11:34:43.423Z,8.10
2023-04-23T11:37:12.427Z,8.20
2023-04-23T11:39:41.579Z,8.20
2023-04-23T11:42:14.397Z,8.10
2023-04-23T11:44:42.770Z,8.10
2023-04-23T11:47:12.566Z,8.10
2023-04-23T11:49:41.219Z,8.00
2023-04-23T11:52:09.507Z,8.00
2023-04-23T11:54:37.131Z,7.90
2023-04-23T11:57:05.951Z,7.90
2023-04-23T11:59:33.112Z,7.90
2023-04-23T12:02:00.822Z,7.90
2023-04-23T12:04:32.058Z,7.90
2023-04-23T12:06:59.990Z,7.90
2023-04-23T12:09:29.460Z,8.00
2023-04-23T12:12:00.812Z,7.90
2023-04-23T12:14:30.098Z,7.90
2023-04-23T12:16:58.953Z,7.90
2023-04-23T12:19:28.670Z,7.90
2023-04-23T12:21:59.250Z,7.90
2023-04-23T12:24:28.764Z,7.90
2023-04-23T12:27:02.982Z,7.90
2023-04-23T12:29:31.903Z,7.90
2023-04-23T12:32:00.241Z,8.00
2023-04-23T12:34:27.691Z,8.10
2023-04-23T12:36:56.327Z,8.10
2023-04-23T12:39:26.654Z,8.10
2023-04-23T12:41:56.562Z,8.10
2023-04-23T12:44:23.939Z,8.20
2023-04-23T12:47:03.680Z,8.30
2023-04-23T12:49:32.439Z,8.40
2023-04-23T12:52:03.900Z,8.40
2023-04-23T12:54:37.615Z,8.40
2023-04-23T12:57:11.256Z,8.40
2023-04-23T12:59:39.109Z,8.30
2023-04-23T13:02:07.535Z,8.40
2023-04-23T13:04:36.404Z,8.40
2023-04-23T13:07:03.580Z,8.40
2023-04-23T13:09:31.130Z,8.40
2023-04-23T13:12:00.171Z,8.30
2023-04-23T13:14:28.435Z,8.20
2023-04-23T13:17:21.503Z,8.20
2023-04-23T13:19:48.982Z,8.10
2023-04-23T13:25:09.237Z,8.20
2023-04-23T13:27:40.067Z,8.10
2023-04-23T13:30:08.610Z,8.10
2023-04-23T13:32:36.123Z,8.00
2023-04-23T13:35:06.589Z,8.00
2023-04-23T13:37:34.016Z,8.00
2023-04-23T13:40:11.752Z,8.10
2023-04-23T13:42:39.810Z,8.20
2023-04-23T13:45:12.526Z,8.40
2023-04-23T13:47:49.086Z,8.20
2023-04-23T13:50:16.538Z,8.10
2023-04-23T13:52:43.888Z,7.90
2023-04-23T13:55:11.379Z,7.80
2023-04-23T13:57:38.639Z,7.80
2023-04-23T14:00:07.333Z,7.80
2023-04-23T14:02:35.619Z,7.70
2023-04-23T14:05:04.464Z,7.60
2023-04-23T14:07:31.880Z,7.50
2023-04-23T14:09:59.203Z,7.70
2023-04-23T14:12:31.344Z,7.60
2023-04-23T14:15:07.766Z,7.70
2023-04-23T14:17:39.563Z,7.60
2023-04-23T14:20:20.640Z,7.60
2023-04-23T14:22:55.711Z,7.40
2023-04-23T14:25:42.317Z,7.40
2023-04-23T14:28:52.020Z,7.30
2023-04-23T14:31:19.950Z,7.30
2023-04-23T14:34:01.232Z,7.30
2023-04-23T14:37:21.962Z,7.30
2023-04-23T14:39:49.843Z,7.30
2023-04-23T14:42:20.408Z,7.40
2023-04-23T14:44:47.892Z,7.30
2023-04-23T14:47:16.054Z,7.30
2023-04-23T15:01:47.979Z,7.40
2023-04-23T15:04:15.356Z,7.20
2023-04-23T15:06:42.552Z,7.10
2023-04-23T15:09:09.752Z,7.20
2023-04-23T15:11:38.911Z,7.10
2023-04-23T15:14:26.276Z,7.10
2023-04-23T15:17:39.198Z,7.10
2023-04-23T15:20:17.964Z,7.20
2023-04-23T15:22:48.039Z,7.30
2023-04-23T15:25:17.217Z,7.40
2023-04-23T15:27:46.243Z,7.30
2023-04-23T15:30:14.042Z,7.20
2023-04-23T15:32:41.437Z,7.00
2023-04-23T15:35:09.172Z,6.90
2023-04-23T15:37:36.381Z,6.80
2023-04-23T15:40:04.154Z,6.80
2023-04-23T15:42:32.516Z,6.80
2023-04-23T15:45:01.453Z,6.90
2023-04-23T15:47:30.222Z,6.90
2023-04-23T15:53:06.873Z,6.80
2023-04-23T15:55:34.314Z,6.80
2023-04-23T15:58:19.309Z,6.70
2023-04-23T16:00:52.596Z,6.60
2023-04-23T16:03:57.672Z,6.50
2023-04-23T16:07:07.651Z,6.40
2023-04-23T16:09:38.274Z,6.40
2023-04-23T16:12:06.072Z,6.50
2023-04-23T16:14:33.283Z,6.50
2023-04-23T16:17:00.658Z,6.50
2023-04-23T16:19:28.603Z,6.50
2023-04-23T16:21:55.937Z,6.40
2023-04-23T16:24:23.540Z,6.30
2023-04-23T16:26:50.906Z,6.40
2023-04-23T16:29:22.712Z,6.40
2023-04-23T16:31:50.660Z,6.50
2023-04-23T16:34:18.735Z,6.60
2023-04-23T16:39:44.414Z,6.60
2023-04-23T16:47:32.228Z,6.50
2023-04-23T16:59:06.230Z,6.50
2023-04-23T17:14:26.065Z,6.10
2023-04-23T17:16:53.331Z,6.10
2023-04-23T17:19:20.628Z,6.10
2023-04-23T17:21:47.919Z,6.10
2023-04-23T17:24:15.102Z,6.20
2023-04-23T17:26:55.163Z,6.30
2023-04-23T18:19:25.192Z,5.40
2023-04-23T18:21:57.870Z,5.40
2023-04-23T18:24:25.288Z,5.50
2023-04-23T18:26:54.791Z,5.50
2023-04-23T18:29:22.380Z,5.50
2023-04-23T18:36:08.482Z,5.50
2023-04-23T18:38:45.311Z,5.50
2023-04-23T18:44:59.589Z,5.40
2023-04-23T18:50:52.761Z,5.20
2023-04-23T18:56:29.755Z,5.10
2023-04-23T18:59:37.867Z,5.20
2023-04-23T19:02:34.343Z,5.20
2023-04-23T19:08:09.467Z,5.20
2023-04-23T19:10:39.628Z,5.30
2023-04-23T19:13:07.545Z,5.30
2023-04-23T19:19:35.518Z,5.10
2023-04-23T19:22:20.889Z,5.10
2023-04-23T19:32:35.710Z,5.20
2023-04-23T19:39:00.028Z,5.30
2023-04-23T19:41:30.350Z,5.30
2023-04-23T19:44:11.075Z,5.30
2023-04-23T19:49:41.410Z,5.10
2023-04-23T19:52:34.775Z,5.10
2023-04-23T19:55:02.720Z,5.10
2023-04-23T19:57:30.010Z,5.20
2023-04-23T19:59:57.524Z,5.20
2023-04-23T20:02:25.111Z,5.20
2023-04-23T20:04:52.531Z,5.20
2023-04-23T20:07:19.813Z,5.20
2023-04-23T20:09:47.098Z,5.10
2023-04-23T20:12:14.474Z,5.20
2023-04-23T20:14:42.760Z,5.20
2023-04-23T20:17:10.422Z,5.20
2023-04-23T20:19:38.590Z,5.20
2023-04-23T20:22:07.920Z,5.30
2023-04-23T20:29:25.964Z,5.30
2023-04-23T20:32:18.258Z,5.40
2023-04-23T20:35:15.727Z,5.40
2023-04-23T20:41:26.278Z,5.50
2023-04-23T20:43:55.483Z,5.40
2023-04-23T20:46:38.638Z,5.40
2023-04-23T20:49:35.166Z,5.30
2023-04-23T20:52:24.354Z,5.30
2023-04-23T20:58:42.861Z,5.40
2023-04-23T21:01:40.148Z,5.30
2023-04-23T21:18:37.083Z,5.30
2023-04-23T21:21:04.973Z,5.20
2023-04-23T21:23:32.320Z,5.20
2023-04-23T21:25:59.782Z,5.20
2023-04-23T21:28:27.326Z,5.20
2023-04-23T21:30:56.634Z,5.20
2023-04-23T21:33:25.908Z,5.20
2023-04-23T21:35:53.966Z,5.30
2023-04-23T21:38:21.662Z,5.30
2023-04-23T21:40:48.904Z,5.30
2023-04-23T21:43:16.982Z,5.20
2023-04-23T21:45:44.246Z,5.00
2023-04-23T21:48:11.669Z,4.90
2023-04-23T21:50:39.030Z,4.80
2023-04-23T21:53:07.017Z,4.80
2023-04-23T21:55:34.564Z,4.80
2023-04-23T22:00:32.979Z,4.80
2023-04-23T22:03:00.382Z,4.80
2023-04-23T22:05:28.657Z,4.80
2023-04-23T22:07:57.021Z,4.90
2023-04-23T22:10:24.410Z,4.90
2023-04-23T22:12:52.262Z,4.90
2023-04-23T22:15:20.064Z,4.90
2023-04-23T22:17:50.505Z,4.90
2023-04-23T22:20:19.331Z,4.90
2023-04-23T22:22:46.948Z,4.90
2023-04-23T22:25:16.332Z,4.90
2023-04-23T22:27:43.774Z,4.90
2023-04-23T22:30:11.962Z,4.80
2023-04-23T22:32:40.016Z,4.90
2023-04-23T22:35:08.444Z,4.90
2023-04-23T22:37:36.171Z,4.90
2023-04-23T22:40:05.461Z,4.90
2023-04-23T22:42:33.491Z,5.00
2023-04-23T22:45:00.931Z,5.00
2023-04-23T22:47:28.508Z,5.00
2023-04-23T22:49:55.877Z,5.10
2023-04-23T22:52:23.238Z,5.10
2023-04-23T22:54:51.769Z,5.10
2023-04-23T22:57:19.384Z,5.00
2023-04-23T22:59:46.984Z,4.90
2023-04-23T23:02:14.559Z,4.90
2023-04-23T23:04:42.547Z,4.90
2023-04-23T23:07:10.363Z,4.80
2023-04-23T23:09:38.104Z,4.80
2023-04-23T23:12:06.388Z,4.80
2023-04-23T23:14:34.357Z,4.80
2023-04-23T23:17:02.894Z,4.80
2023-04-23T23:19:33.574Z,4.80
2023-04-23T23:22:01.122Z,4.80
2023-04-23T23:24:28.736Z,4.80
2023-04-23T23:26:56.226Z,4.70
2023-04-23T23:29:23.619Z,4.70
2023-04-23T23:31:51.369Z,4.60
2023-04-23T23:34:18.973Z,4.70
2023-04-23T23:36:48.555Z,4.80
2023-04-23T23:39:19.340Z,4.70
2023-04-23T23:41:47.589Z,4.80
2023-04-23T23:44:16.168Z,4.70
2023-04-23T23:46:45.474Z,4.70
2023-04-23T23:49:12.856Z,4.70
2023-04-23T23:51:41.024Z,4.80
2023-04-23T23:54:08.792Z,4.80
2023-04-23T23:56:37.597Z,4.70
2023-04-23T23:59:05.180Z,4.80
